Time;durP1;ratioP1;P1;durP2;ratioP2;P2;SDS_P1;SDS_P2;PMS_P1;PMS_P2;Temp;Humidity;BMP_temperature;BMP_pressure;BME280_temperature;BME280_humidity;BME280_pressure;Samples;Min_cycle;Max_cycle;Signal;HPM_P1;HPM_P2
2023/07/11 00:01:54;;;;;;;;;;;;;;;17.37;90.71;95655.78;5094116;28;1041;-51
2023/07/11 00:04:20;;;;;;;;;;;;;;;17.34;90.94;95650.78;5094199;28;1165;-50
2023/07/11 00:06:46;;;;;;;;;;;;;;;17.06;91.77;95656.06;5093976;28;1088;-51
2023/07/11 00:09:11;;;;;;;;;;;;;;;16.96;92.25;95657.19;5093941;28;1914;-51
2023/07/11 00:11:37;;;;;;;;;;;;;;;17.14;91.42;95653.25;5094071;28;956;-51
2023/07/11 00:14:03;;;;;;;;;;;;;;;16.98;91.58;95657.84;5093833;28;1072;-50
2023/07/11 00:16:29;;;;;;;;;;;;;;;16.71;92.47;95659.31;5093723;28;1209;-51
2023/07/11 00:18:55;;;;;;;;;;;;;;;16.73;92.37;95659.13;5093833;28;1104;-51
2023/07/11 00:21:21;;;;;;;;;;;;;;;17.00;91.08;95656.78;5093930;28;1035;-51
2023/07/11 00:23:47;;;;;;;;;;;;;;;17.13;90.73;95659.66;5093766;28;1120;-53
2023/07/11 00:26:13;;;;;;;;;;;;;;;17.15;90.98;95657.63;5093264;28;1626;-53
2023/07/11 00:28:39;;;;;;;;;;;;;;;16.98;91.47;95649.72;5093681;28;1996;-53
2023/07/11 00:31:06;;;;;;;;;;;;;;;16.73;91.84;95648.31;5093633;28;1055;-53
2023/07/11 00:33:33;;;;;;;;;;;;;;;16.58;93.55;95657.28;5093552;28;1092;-53
2023/07/11 00:35:58;;;;;;;;;;;;;;;16.63;93.71;95656.69;5093835;28;989;-53
2023/07/11 00:38:25;;;;;;;;;;;;;;;16.77;93.02;95663.16;5093432;28;1100;-53
2023/07/11 00:40:51;;;;;;;;;;;;;;;16.65;93.46;95651.94;5093424;28;1062;-53
2023/07/11 00:43:19;;;;;;;;;;;;;;;16.54;93.62;95647.88;5093339;28;1008;-53
2023/07/11 00:45:51;;;;;;;;;;;;;;;16.76;92.80;95648.78;5093550;28;961;-53
2023/07/11 00:48:17;;;;;;;;;;;;;;;16.88;92.29;95642.94;5093543;28;1992;-53
2023/07/11 00:50:44;;;;;;;;;;;;;;;16.83;92.41;95651.63;5093414;28;1029;-53
2023/07/11 00:53:11;;;;;;;;;;;;;;;16.72;92.81;95650.19;5093384;28;1041;-53
2023/07/11 00:55:37;;;;;;;;;;;;;;;16.61;93.50;95647.94;5093500;28;977;-53
2023/07/11 00:58:04;;;;;;;;;;;;;;;16.90;91.37;95644.44;5093499;28;1031;-53
2023/07/11 01:00:29;;;;;;;;;;;;;;;16.78;92.13;95645.91;5093262;28;1056;-53
2023/07/11 01:02:55;;;;;;;;;;;;;;;16.82;91.91;95647.22;5093543;28;1024;-53
2023/07/11 01:05:21;;;;;;;;;;;;;;;16.77;92.37;95647.78;5093227;28;1033;-53
2023/07/11 01:07:47;;;;;;;;;;;;;;;16.75;91.42;95641.72;5093346;28;1996;-53
2023/07/11 01:10:13;;;;;;;;;;;;;;;16.72;92.48;95638.56;5093307;28;1027;-53
2023/07/11 01:12:44;;;;;;;;;;;;;;;16.83;92.04;95635.41;5093182;28;1105;-53
2023/07/11 01:15:10;;;;;;;;;;;;;;;16.76;92.65;95640.69;5093046;28;1029;-53
2023/07/11 01:17:36;;;;;;;;;;;;;;;16.67;92.63;95636.41;5093253;28;1092;-53
2023/07/11 01:20:03;;;;;;;;;;;;;;;16.67;91.89;95635.56;5093325;28;996;-53
2023/07/11 01:22:30;;;;;;;;;;;;;;;16.48;92.84;95637.81;5093135;28;1072;-53
2023/07/11 01:24:58;;;;;;;;;;;;;;;16.23;94.11;95626.44;5093110;28;1601;-53
2023/07/11 01:27:24;;;;;;;;;;;;;;;16.19;94.16;95628.66;5092923;28;1231;-53
2023/07/11 01:29:51;;;;;;;;;;;;;;;16.34;93.88;95631.38;5093004;28;1910;-53
2023/07/11 01:32:17;;;;;;;;;;;;;;;16.38;93.65;95637.25;5092968;28;1147;-53
2023/07/11 01:34:44;;;;;;;;;;;;;;;16.44;93.19;95631.09;5093229;28;1032;-53
2023/07/11 01:37:10;;;;;;;;;;;;;;;16.20;93.65;95641.16;5093144;28;1033;-53
2023/07/11 01:39:36;;;;;;;;;;;;;;;16.22;94.91;95632.00;5091908;28;1044;-53
2023/07/11 01:42:02;;;;;;;;;;;;;;;16.35;94.49;95635.78;5093066;28;1039;-53
2023/07/11 01:44:28;;;;;;;;;;;;;;;16.37;93.96;95638.25;5092932;28;1269;-53
2023/07/11 01:46:55;;;;;;;;;;;;;;;16.24;93.88;95638.06;5092945;28;1116;-53
2023/07/11 01:49:21;;;;;;;;;;;;;;;16.04;93.91;95646.69;5092813;28;1988;-53
2023/07/11 01:51:47;;;;;;;;;;;;;;;16.06;94.16;95638.41;5092578;28;1111;-53
2023/07/11 01:54:14;;;;;;;;;;;;;;;16.06;93.27;95644.66;5094604;28;1024;-53
2023/07/11 01:56:40;;;;;;;;;;;;;;;15.91;94.34;95641.91;5096521;28;1959;-53
2023/07/11 01:59:06;;;;;;;;;;;;;;;16.00;94.20;95629.22;5096400;28;1127;-53
2023/07/11 02:01:32;;;;;;;;;;;;;;;16.09;93.71;95649.69;5096612;28;1028;-53
2023/07/11 02:03:58;;;;;;;;;;;;;;;16.05;93.84;95644.81;5096395;28;923;-53
2023/07/11 02:06:24;;;;;;;;;;;;;;;15.98;93.72;95642.88;5096336;28;1136;-53
2023/07/11 02:08:51;;;;;;;;;;;;;;;15.84;94.28;95638.28;5096305;28;1918;-53
2023/07/11 02:11:17;;;;;;;;;;;;;;;15.69;95.67;95637.34;5096153;28;1084;-53
2023/07/11 02:13:43;;;;;;;;;;;;;;;15.85;95.11;95645.34;5096074;28;1905;-53
2023/07/11 02:16:09;;;;;;;;;;;;;;;15.89;94.82;95641.25;5094917;28;1116;-53
2023/07/11 02:18:35;;;;;;;;;;;;;;;15.99;93.90;95641.88;5096303;28;1045;-53
2023/07/11 02:21:01;;;;;;;;;;;;;;;15.96;94.42;95636.81;5095993;28;1096;-53
2023/07/11 02:23:27;;;;;;;;;;;;;;;15.87;94.38;95640.59;5096026;28;1064;-53
2023/07/11 02:25:53;;;;;;;;;;;;;;;15.89;94.53;95643.13;5095651;28;1534;-53
2023/07/11 02:28:22;;;;;;;;;;;;;;;15.90;94.54;95652.91;5095701;28;2007;-53
2023/07/11 02:30:48;;;;;;;;;;;;;;;15.89;93.78;95652.03;5096057;28;969;-52
2023/07/11 02:33:14;;;;;;;;;;;;;;;15.89;94.21;95645.81;5095710;28;1863;-53
2023/07/11 02:35:41;;;;;;;;;;;;;;;15.75;94.21;95639.38;5095917;28;1050;-53
2023/07/11 02:38:07;;;;;;;;;;;;;;;15.78;94.89;95629.06;5095736;28;965;-53
2023/07/11 02:40:33;;;;;;;;;;;;;;;15.79;95.20;95627.22;5095621;28;1031;-53
2023/07/11 02:42:59;;;;;;;;;;;;;;;15.67;94.61;95634.00;5095506;28;1097;-53
2023/07/11 02:45:25;;;;;;;;;;;;;;;15.38;95.84;95639.09;5095665;28;981;-53
2023/07/11 02:47:51;;;;;;;;;;;;;;;15.40;96.61;95638.91;5095430;28;1945;-53
2023/07/11 02:50:17;;;;;;;;;;;;;;;15.58;96.11;95623.28;5095373;28;1037;-53
2023/07/11 02:52:43;;;;;;;;;;;;;;;15.67;95.51;95631.31;5095472;28;1039;-53
2023/07/11 02:55:09;;;;;;;;;;;;;;;15.79;95.16;95624.50;5095357;28;1073;-53
2023/07/11 02:57:36;;;;;;;;;;;;;;;15.74;94.81;95616.94;5095285;28;1309;-53
2023/07/11 03:00:02;;;;;;;;;;;;;;;15.71;94.48;95629.94;5095511;28;1060;-53
2023/07/11 03:02:29;;;;;;;;;;;;;;;15.54;94.67;95634.63;5095302;28;957;-53
2023/07/11 03:04:54;;;;;;;;;;;;;;;15.42;95.56;95631.50;5094796;28;1067;-53
2023/07/11 03:07:20;;;;;;;;;;;;;;;15.43;95.61;95639.41;5095025;28;1092;-53
2023/07/11 03:09:46;;;;;;;;;;;;;;;15.54;95.49;95640.84;5095021;28;1906;-53
2023/07/11 03:12:12;;;;;;;;;;;;;;;15.71;94.62;95640.72;5094886;28;1037;-54
2023/07/11 03:14:38;;;;;;;;;;;;;;;15.76;94.40;95646.44;5095172;28;982;-54
2023/07/11 03:17:04;;;;;;;;;;;;;;;15.73;94.57;95653.03;5095099;28;997;-54
2023/07/11 03:19:30;;;;;;;;;;;;;;;15.79;94.02;95648.78;5094840;28;1016;-54
2023/07/11 03:21:56;;;;;;;;;;;;;;;15.80;92.94;95662.09;5094777;28;1053;-54
2023/07/11 03:24:22;;;;;;;;;;;;;;;15.72;94.06;95653.19;5094725;28;1543;-54
2023/07/11 03:26:48;;;;;;;;;;;;;;;15.96;95.38;95655.69;5094442;28;1247;-54
2023/07/11 03:29:14;;;;;;;;;;;;;;;15.93;93.74;95655.22;5094767;28;1914;-54
2023/07/11 03:31:41;;;;;;;;;;;;;;;15.87;93.56;95662.19;5094869;28;1039;-55
2023/07/11 03:34:07;;;;;;;;;;;;;;;15.85;94.05;95663.38;5094720;28;1021;-54
2023/07/11 03:36:33;;;;;;;;;;;;;;;15.83;93.72;95671.66;5094663;28;1216;-54
2023/07/11 03:38:59;;;;;;;;;;;;;;;15.84;94.54;95669.78;5094514;28;1202;-54
2023/07/11 03:41:25;;;;;;;;;;;;;;;15.79;94.66;95678.44;5094286;28;1037;-54
2023/07/11 03:43:51;;;;;;;;;;;;;;;15.88;94.62;95674.66;5094459;28;2005;-55
2023/07/11 03:46:17;;;;;;;;;;;;;;;15.76;96.11;95665.31;5094444;28;969;-54
2023/07/11 03:48:43;;;;;;;;;;;;;;;15.71;96.97;95671.22;5094382;28;1930;-54
2023/07/11 03:51:09;;;;;;;;;;;;;;;15.81;97.46;95669.13;5094326;28;1019;-54
2023/07/11 03:53:36;;;;;;;;;;;;;;;15.89;97.55;95670.09;5094335;28;1031;-54
2023/07/11 03:56:04;;;;;;;;;;;;;;;16.00;97.14;95673.19;5094161;28;1004;-54
2023/07/11 03:58:30;;;;;;;;;;;;;;;16.31;96.58;95674.09;5094335;28;1330;-54
2023/07/11 04:00:56;;;;;;;;;;;;;;;16.53;96.12;95678.56;5094074;28;1025;-54
2023/07/11 04:03:23;;;;;;;;;;;;;;;16.73;94.84;95681.56;5093943;28;1121;-54
2023/07/11 04:05:49;;;;;;;;;;;;;;;16.87;94.13;95685.31;5094124;28;1121;-54
2023/07/11 04:08:15;;;;;;;;;;;;;;;16.97;93.90;95685.84;5093813;28;1976;-54
2023/07/11 04:10:41;;;;;;;;;;;;;;;17.06;94.12;95675.81;5093842;28;1032;-54
2023/07/11 04:13:07;;;;;;;;;;;;;;;16.97;95.26;95680.47;5094203;28;1028;-54
2023/07/11 04:15:33;;;;;;;;;;;;;;;17.06;93.14;95672.28;5093769;28;1222;-54
2023/07/11 04:17:59;;;;;;;;;;;;;;;17.32;92.72;95686.09;5093496;28;1027;-54
2023/07/11 04:20:25;;;;;;;;;;;;;;;17.61;90.11;95672.69;5093712;28;1097;-54
2023/07/11 04:22:51;;;;;;;;;;;;;;;17.77;90.74;95688.63;5093796;28;1079;-54
2023/07/11 04:25:17;;;;;;;;;;;;;;;17.78;92.66;95686.78;5093503;28;1609;-54
2023/07/11 04:27:43;;;;;;;;;;;;;;;17.91;92.31;95687.78;5093571;28;1073;-53
2023/07/11 04:30:09;;;;;;;;;;;;;;;17.98;92.63;95695.94;5093574;28;1902;-54
2023/07/11 04:32:35;;;;;;;;;;;;;;;18.13;90.83;95706.69;5093823;28;1066;-54
2023/07/11 04:35:02;;;;;;;;;;;;;;;18.39;88.69;95699.84;5093711;28;1043;-54
2023/07/11 04:37:28;;;;;;;;;;;;;;;18.53;88.08;95705.19;5093563;28;989;-53
2023/07/11 04:39:54;;;;;;;;;;;;;;;18.74;86.78;95703.41;5093519;28;960;-54
2023/07/11 04:42:20;;;;;;;;;;;;;;;18.87;86.36;95697.28;5093704;28;1024;-54
2023/07/11 04:44:46;;;;;;;;;;;;;;;18.95;84.75;95688.16;5093448;28;1041;-54
2023/07/11 04:47:12;;;;;;;;;;;;;;;18.91;84.59;95688.56;5093586;28;1044;-54
2023/07/11 04:49:38;;;;;;;;;;;;;;;18.86;86.34;95669.34;5093481;28;1914;-54
2023/07/11 04:52:04;;;;;;;;;;;;;;;19.23;84.05;95680.78;5093504;28;961;-54
2023/07/11 04:54:30;;;;;;;;;;;;;;;19.26;85.66;95691.22;5093274;28;1838;-54
2023/07/11 04:56:58;;;;;;;;;;;;;;;19.30;85.90;95703.34;5093336;28;1046;-54
2023/07/11 04:59:24;;;;;;;;;;;;;;;19.49;84.28;95695.47;5093296;28;1309;-54
2023/07/11 05:01:50;;;;;;;;;;;;;;;19.61;83.37;95699.25;5093469;28;965;-54
2023/07/11 05:04:16;;;;;;;;;;;;;;;19.58;81.70;95704.25;5092883;28;1281;-54
2023/07/11 05:06:43;;;;;;;;;;;;;;;19.41;82.18;95703.81;5093250;28;1068;-54
2023/07/11 05:09:09;;;;;;;;;;;;;;;19.50;81.14;95691.72;5093031;28;1906;-54
2023/07/11 05:11:36;;;;;;;;;;;;;;;19.67;78.74;95697.59;5093077;28;1037;-54
2023/07/11 05:14:02;;;;;;;;;;;;;;;19.87;79.76;95700.41;5093312;28;973;-54
2023/07/11 05:16:29;;;;;;;;;;;;;;;19.98;79.23;95702.53;5093227;28;945;-54
2023/07/11 05:18:55;;;;;;;;;;;;;;;20.12;78.58;95695.22;5093186;28;1189;-54
2023/07/11 05:21:22;;;;;;;;;;;;;;;20.11;80.22;95709.00;5092913;28;1060;-54
2023/07/11 05:23:48;;;;;;;;;;;;;;;20.12;78.41;95699.81;5092943;28;1045;-54
2023/07/11 05:26:15;;;;;;;;;;;;;;;20.15;80.08;95707.56;5092574;28;1265;-54
2023/07/11 05:28:42;;;;;;;;;;;;;;;20.14;81.95;95712.13;5095656;28;1905;-54
2023/07/11 05:31:08;;;;;;;;;;;;;;;20.18;80.06;95712.56;5096851;28;1069;-54
2023/07/11 05:33:34;;;;;;;;;;;;;;;20.38;80.40;95716.13;5096698;28;1021;-54
2023/07/11 05:36:33;;;;;;;;;;;;;;;20.36;79.29;95706.53;5096801;28;977;-54
2023/07/11 05:39:06;;;;;;;;;;;;;;;20.59;79.85;95714.25;5083940;28;1213;-54
2023/07/11 05:41:33;;;;;;;;;;;;;;;20.75;77.78;95721.16;5096553;28;1017;-54
2023/07/11 05:43:59;;;;;;;;;;;;;;;20.93;76.00;95715.91;5096551;28;1049;-54
2023/07/11 05:46:26;;;;;;;;;;;;;;;21.11;74.42;95717.13;5096588;28;1024;-54
2023/07/11 05:48:53;;;;;;;;;;;;;;;21.21;76.25;95709.38;5096355;28;1918;-54
2023/07/11 05:51:20;;;;;;;;;;;;;;;21.20;75.66;95711.22;5096394;28;1148;-54
2023/07/11 05:53:46;;;;;;;;;;;;;;;21.26;76.74;95718.53;5096586;28;969;-54
2023/07/11 05:56:12;;;;;;;;;;;;;;;21.24;74.79;95714.34;5096268;28;1107;-54
2023/07/11 05:58:38;;;;;;;;;;;;;;;21.23;75.69;95709.97;5096402;28;1063;-54
2023/07/11 06:01:05;;;;;;;;;;;;;;;21.26;75.60;95707.63;5096282;28;1057;-54
2023/07/11 06:03:31;;;;;;;;;;;;;;;21.22;75.95;95703.69;5096099;28;1034;-54
2023/07/11 06:06:01;;;;;;;;;;;;;;;21.43;73.84;95705.28;5096371;28;1292;-54
2023/07/11 06:08:28;;;;;;;;;;;;;;;21.76;73.85;95707.06;5096098;28;1913;-54
2023/07/11 06:10:58;;;;;;;;;;;;;;;21.99;75.72;95708.41;5096253;28;1032;-54
2023/07/11 06:13:25;;;;;;;;;;;;;;;22.15;74.53;95715.19;5096015;28;969;-54
2023/07/11 06:15:56;;;;;;;;;;;;;;;22.29;73.74;95711.38;5096013;28;1052;-54
2023/07/11 06:18:22;;;;;;;;;;;;;;;22.25;72.07;95707.38;5096039;28;1052;-54
2023/07/11 06:20:48;;;;;;;;;;;;;;;22.49;74.88;95708.47;5096215;28;1040;-54
2023/07/11 06:23:14;;;;;;;;;;;;;;;22.78;74.29;95711.56;5096073;28;1048;-54
2023/07/11 06:25:40;;;;;;;;;;;;;;;22.74;74.73;95711.19;5095562;28;1534;-55
2023/07/11 06:28:06;;;;;;;;;;;;;;;23.07;72.61;95701.88;5095797;28;1918;-54
2023/07/11 06:30:32;;;;;;;;;;;;;;;23.23;73.20;95705.06;5095798;28;984;-54
2023/07/11 06:32:58;;;;;;;;;;;;;;;23.28;73.12;95716.97;5095740;28;1041;-54
2023/07/11 06:35:24;;;;;;;;;;;;;;;23.24;71.56;95717.63;5095601;28;1010;-54
2023/07/11 06:37:50;;;;;;;;;;;;;;;23.34;71.22;95707.03;5095734;28;1033;-54
2023/07/11 06:40:17;;;;;;;;;;;;;;;23.45;70.68;95710.88;5093677;28;1122;-54
2023/07/11 06:42:43;;;;;;;;;;;;;;;23.62;69.41;95709.22;5095707;28;1047;-54
2023/07/11 06:45:09;;;;;;;;;;;;;;;23.76;70.22;95701.69;5095571;28;1120;-54
2023/07/11 06:47:36;;;;;;;;;;;;;;;23.78;69.06;95702.28;5095540;28;1056;-54
2023/07/11 06:50:02;;;;;;;;;;;;;;;24.01;69.40;95706.22;5095659;28;1902;-54
2023/07/11 06:52:29;;;;;;;;;;;;;;;24.31;66.19;95701.53;5095568;28;1066;-54
2023/07/11 06:54:55;;;;;;;;;;;;;;;24.45;65.11;95706.81;5095380;28;1061;-54
2023/07/11 06:57:21;;;;;;;;;;;;;;;24.24;69.94;95709.00;5094788;28;973;-54
2023/07/11 06:59:48;;;;;;;;;;;;;;;24.16;66.93;95709.34;5095321;28;1025;-54
2023/07/11 07:02:14;;;;;;;;;;;;;;;24.17;68.41;95711.84;5095104;28;997;-55
2023/07/11 07:04:40;;;;;;;;;;;;;;;24.30;67.62;95702.63;5094915;28;968;-54
2023/07/11 07:07:06;;;;;;;;;;;;;;;24.32;67.97;95705.97;5095290;28;1040;-54
2023/07/11 07:09:32;;;;;;;;;;;;;;;24.39;66.82;95710.47;5094096;28;1909;-54
2023/07/11 07:11:58;;;;;;;;;;;;;;;24.33;67.93;95704.88;5094892;28;1128;-54
2023/07/11 07:14:24;;;;;;;;;;;;;;;24.45;66.93;95704.06;5094804;28;1099;-54
2023/07/11 07:16:50;;;;;;;;;;;;;;;24.49;68.12;95697.06;5094819;28;1097;-54
2023/07/11 07:19:16;;;;;;;;;;;;;;;24.62;66.94;95691.41;5094864;28;1060;-54
2023/07/11 07:21:42;;;;;;;;;;;;;;;25.01;67.34;95694.50;5094859;28;1055;-54
2023/07/11 07:24:08;;;;;;;;;;;;;;;24.95;66.49;95692.75;5094727;28;1316;-54
2023/07/11 07:26:34;;;;;;;;;;;;;;;25.19;65.91;95696.25;5093070;28;1370;-55
2023/07/11 07:29:00;;;;;;;;;;;;;;;25.38;65.78;95694.25;5094578;28;1910;-54
2023/07/11 07:31:26;;;;;;;;;;;;;;;25.21;66.73;95698.75;5094359;28;1173;-54
2023/07/11 07:33:52;;;;;;;;;;;;;;;25.26;65.61;95687.97;5094446;28;925;-54
2023/07/11 07:36:18;;;;;;;;;;;;;;;25.47;66.61;95681.84;5094318;28;1878;-54
2023/07/11 07:38:44;;;;;;;;;;;;;;;25.48;65.89;95689.00;5094548;28;984;-54
2023/07/11 07:41:10;;;;;;;;;;;;;;;25.71;65.42;95688.09;5094222;28;1091;-55
2023/07/11 07:43:39;;;;;;;;;;;;;;;25.81;64.52;95681.16;5094373;28;961;-55
2023/07/11 07:46:05;;;;;;;;;;;;;;;25.80;64.26;95668.53;5094207;28;1197;-55
2023/07/11 07:48:32;;;;;;;;;;;;;;;25.81;63.89;95670.19;5094287;28;1981;-54
2023/07/11 07:51:05;;;;;;;;;;;;;;;26.00;65.16;95668.13;5094134;28;1052;-55
2023/07/11 07:53:31;;;;;;;;;;;;;;;26.10;65.71;95671.03;5094166;28;1016;-54
2023/07/11 07:56:05;;;;;;;;;;;;;;;26.38;64.96;95661.13;5094125;28;1027;-54
2023/07/11 07:58:31;;;;;;;;;;;;;;;26.60;64.00;95659.31;5093909;28;1064;-54
2023/07/11 08:00:57;;;;;;;;;;;;;;;26.65;65.43;95659.41;5094237;28;1874;-54
2023/07/11 08:03:23;;;;;;;;;;;;;;;26.71;64.06;95662.22;5094209;28;1067;-54
2023/07/11 08:05:49;;;;;;;;;;;;;;;26.66;64.01;95661.06;5094045;28;914;-54
2023/07/11 08:08:15;;;;;;;;;;;;;;;26.59;63.16;95654.91;5093740;28;1984;-54
2023/07/11 08:10:41;;;;;;;;;;;;;;;26.59;63.91;95654.06;5093752;28;973;-54
2023/07/11 08:13:07;;;;;;;;;;;;;;;26.54;63.35;95657.56;5093720;28;1032;-54
2023/07/11 08:15:33;;;;;;;;;;;;;;;26.67;63.39;95661.88;5093865;28;1044;-54
2023/07/11 08:17:59;;;;;;;;;;;;;;;26.85;63.99;95663.53;5093665;28;1084;-55
2023/07/11 08:20:25;;;;;;;;;;;;;;;26.92;63.18;95658.72;5093722;28;973;-54
2023/07/11 08:22:52;;;;;;;;;;;;;;;27.07;60.02;95658.94;5093784;28;1122;-55
2023/07/11 08:28:50;;;;;;;;;;;;;;;27.44;60.50;95661.09;5092153;28;1987;-54
2023/07/11 08:31:18;;;;;;;;;;;;;;;27.48;61.57;95658.66;5093577;28;1053;-54
2023/07/11 08:33:44;;;;;;;;;;;;;;;27.48;58.87;95663.31;5093591;28;1040;-55
2023/07/11 08:36:10;;;;;;;;;;;;;;;27.69;60.90;95667.97;5093242;28;1068;-54
2023/07/11 08:38:36;;;;;;;;;;;;;;;27.83;59.11;95658.25;5093718;28;1036;-55
2023/07/11 08:41:13;;;;;;;;;;;;;;;27.90;60.95;95668.25;5093370;28;1037;-55
2023/07/11 08:43:39;;;;;;;;;;;;;;;27.77;60.45;95667.50;5093586;28;973;-55
2023/07/11 08:46:07;;;;;;;;;;;;;;;27.60;56.18;95669.50;5093391;28;1047;-55
2023/07/11 08:48:36;;;;;;;;;;;;;;;27.63;57.47;95660.75;5093109;28;1918;-55
2023/07/11 08:51:02;;;;;;;;;;;;;;;27.58;59.24;95660.69;5093281;28;1143;-54
2023/07/11 08:53:37;;;;;;;;;;;;;;;27.75;56.40;95657.88;5093373;28;1027;-55
2023/07/11 08:56:13;;;;;;;;;;;;;;;27.67;58.16;95659.16;5093299;28;1851;-55
2023/07/11 08:58:40;;;;;;;;;;;;;;;27.93;58.09;95648.50;5093370;28;1063;-55
2023/07/11 09:01:13;;;;;;;;;;;;;;;28.28;57.17;95660.94;5093217;28;1107;-54
2023/07/11 09:03:44;;;;;;;;;;;;;;;28.38;57.82;95650.84;5096148;28;980;-55
2023/07/11 09:06:12;;;;;;;;;;;;;;;28.41;56.79;95646.75;5097507;28;1020;-55
2023/07/11 09:08:41;;;;;;;;;;;;;;;28.48;58.71;95639.13;5097400;28;1917;-54
2023/07/11 09:11:13;;;;;;;;;;;;;;;28.44;56.64;95648.97;5097350;28;1032;-54
2023/07/11 09:13:42;;;;;;;;;;;;;;;28.54;53.23;95648.25;5097214;28;1008;-55
2023/07/11 09:16:17;;;;;;;;;;;;;;;28.58;55.84;95641.97;5097072;28;1215;-55
2023/07/11 09:18:49;;;;;;;;;;;;;;;28.66;51.07;95646.16;5097293;28;1027;-55
2023/07/11 09:21:22;;;;;;;;;;;;;;;28.68;50.53;95637.63;5096965;28;1883;-54
2023/07/11 09:23:54;;;;;;;;;;;;;;;28.71;51.01;95645.38;5097011;28;1041;-54
2023/07/11 09:26:25;;;;;;;;;;;;;;;28.72;50.56;95641.50;5093281;28;1355;-54
2023/07/11 09:28:57;;;;;;;;;;;;;;;28.72;50.26;95636.00;5095499;28;1918;-55
2023/07/11 09:31:23;;;;;;;;;;;;;;;28.71;48.35;95634.38;5096961;28;1853;-54
2023/07/11 09:33:51;;;;;;;;;;;;;;;28.79;52.25;95631.13;5096910;28;958;-55
2023/07/11 09:36:22;;;;;;;;;;;;;;;29.02;50.80;95630.69;5096732;28;1021;-54
2023/07/11 09:38:50;;;;;;;;;;;;;;;28.95;41.27;95646.63;5096657;28;1119;-54
2023/07/11 09:41:20;;;;;;;;;;;;;;;28.86;41.43;95648.22;5096837;28;957;-54
2023/07/11 09:43:47;;;;;;;;;;;;;;;28.84;43.07;95636.66;5097025;28;1198;-54
2023/07/11 09:46:14;;;;;;;;;;;;;;;29.20;45.40;95636.91;5096580;28;1000;-54
2023/07/11 09:48:42;;;;;;;;;;;;;;;29.42;47.59;95633.97;5096532;28;1914;-55
2023/07/11 09:51:12;;;;;;;;;;;;;;;29.44;42.83;95642.78;5096463;28;1036;-54
2023/07/11 09:53:45;;;;;;;;;;;;;;;29.35;44.16;95634.22;5096641;28;988;-55
2023/07/11 09:56:16;;;;;;;;;;;;;;;29.47;45.48;95631.25;5096654;28;1016;-55
2023/07/11 09:58:46;;;;;;;;;;;;;;;29.55;45.16;95635.41;5096680;28;1023;-55
2023/07/11 10:01:17;;;;;;;;;;;;;;;29.67;44.65;95629.66;5096503;28;1040;-55
2023/07/11 10:03:45;;;;;;;;;;;;;;;29.71;44.90;95631.59;5096473;28;941;-55
2023/07/11 10:06:23;;;;;;;;;;;;;;;29.64;45.84;95627.44;5096215;28;1028;-55
2023/07/11 10:08:49;;;;;;;;;;;;;;;29.66;39.65;95631.59;5096326;28;1913;-55
2023/07/11 10:11:15;;;;;;;;;;;;;;;29.83;42.35;95622.31;5096260;28;964;-55
2023/07/11 10:13:41;;;;;;;;;;;;;;;29.83;41.62;95623.13;5095734;28;1052;-55
2023/07/11 10:16:14;;;;;;;;;;;;;;;29.82;40.62;95618.69;5095525;28;1128;-55
2023/07/11 10:18:42;;;;;;;;;;;;;;;29.82;42.53;95615.13;5096097;28;1043;-55
2023/07/11 10:21:19;;;;;;;;;;;;;;;29.75;43.81;95607.13;5096031;28;1033;-55
2023/07/11 10:23:46;;;;;;;;;;;;;;;29.73;43.47;95607.41;5096032;28;1037;-55
2023/07/11 10:26:20;;;;;;;;;;;;;;;29.87;43.12;95607.69;5095685;28;1363;-55
2023/07/11 10:28:52;;;;;;;;;;;;;;;30.07;43.11;95604.16;5095825;28;1917;-55
2023/07/11 10:31:23;;;;;;;;;;;;;;;30.14;43.26;95601.13;5096026;28;973;-55
2023/07/11 10:33:59;;;;;;;;;;;;;;;30.08;43.34;95603.03;5095864;28;1307;-55
2023/07/11 10:36:48;;;;;;;;;;;;;;;29.98;43.47;95598.34;5095666;28;1041;-55
2023/07/11 10:39:20;;;;;;;;;;;;;;;29.89;42.78;95601.91;5087551;28;1230;-55
2023/07/11 10:41:57;;;;;;;;;;;;;;;29.85;43.21;95601.63;5095613;28;1044;-55
2023/07/11 10:44:30;;;;;;;;;;;;;;;30.00;44.58;95591.75;5095601;28;1144;-55
2023/07/11 10:46:56;;;;;;;;;;;;;;;30.07;44.30;95593.13;5095750;28;1172;-55
2023/07/11 10:49:25;;;;;;;;;;;;;;;30.14;44.59;95588.16;5095440;28;1909;-55
2023/07/11 10:51:56;;;;;;;;;;;;;;;30.12;44.43;95586.78;5095545;28;1092;-55
2023/07/11 10:54:34;;;;;;;;;;;;;;;30.13;40.08;95593.97;5095663;28;1021;-55
2023/07/11 10:57:04;;;;;;;;;;;;;;;30.06;43.04;95583.19;5095466;28;977;-55
2023/07/11 10:59:31;;;;;;;;;;;;;;;30.08;44.66;95569.94;5095231;28;1092;-54
2023/07/11 11:02:01;;;;;;;;;;;;;;;30.28;41.24;95579.31;5095272;28;1104;-56
2023/07/11 11:04:54;;;;;;;;;;;;;;;30.43;41.86;95576.63;5095238;28;1067;-54
2023/07/11 11:07:20;;;;;;;;;;;;;;;30.49;40.36;95591.25;5095053;28;949;-54
2023/07/11 11:09:46;;;;;;;;;;;;;;;30.55;43.80;95568.06;5094993;28;1909;-54
2023/07/11 11:12:18;;;;;;;;;;;;;;;30.48;41.30;95573.03;5095070;28;1092;-54
2023/07/11 11:14:52;;;;;;;;;;;;;;;30.36;44.56;95559.53;5095078;28;1041;-54
2023/07/11 11:17:24;;;;;;;;;;;;;;;30.29;43.77;95562.50;5094827;28;1033;-54
2023/07/11 11:20:05;;;;;;;;;;;;;;;30.27;41.45;95563.91;5094875;28;1034;-54
2023/07/11 11:22:47;;;;;;;;;;;;;;;30.31;43.43;95562.25;5094913;28;1040;-54
2023/07/11 11:25:32;;;;;;;;;;;;;;;30.42;44.75;95554.81;5094336;28;2007;-54
2023/07/11 11:27:58;;;;;;;;;;;;;;;30.38;40.14;95556.50;5094673;28;1184;-54
2023/07/11 11:30:35;;;;;;;;;;;;;;;30.29;41.43;95550.66;5094585;28;1984;-54
2023/07/11 11:33:22;;;;;;;;;;;;;;;30.41;42.01;95548.50;5094655;28;1041;-55
2023/07/11 11:35:48;;;;;;;;;;;;;;;30.51;41.71;95542.94;5094605;28;1120;-54
2023/07/11 11:38:27;;;;;;;;;;;;;;;30.51;41.87;95542.94;5094671;28;1027;-54
2023/07/11 11:40:58;;;;;;;;;;;;;;;30.51;42.91;95531.91;5094983;28;969;-54
2023/07/11 11:43:25;;;;;;;;;;;;;;;30.54;42.08;95531.38;5094398;28;1103;-55
2023/07/11 11:45:51;;;;;;;;;;;;;;;30.54;42.15;95536.88;5094468;28;1150;-53
2023/07/11 11:48:20;;;;;;;;;;;;;;;30.61;44.34;95525.53;5094261;28;1902;-54
2023/07/11 11:50:46;;;;;;;;;;;;;;;30.65;43.67;95534.09;5094326;28;1024;-54
2023/07/11 11:53:17;;;;;;;;;;;;;;;30.73;43.64;95531.59;5094462;28;1053;-55
2023/07/11 11:55:51;;;;;;;;;;;;;;;30.75;43.40;95531.31;5094423;28;1013;-54
2023/07/11 11:58:18;;;;;;;;;;;;;;;30.64;42.56;95529.66;5094183;28;1033;-55
2023/07/11 12:00:46;;;;;;;;;;;;;;;30.62;43.02;95526.38;5094185;28;1067;-56
2023/07/11 12:03:35;;;;;;;;;;;;;;;30.50;43.90;95521.16;5094042;28;1032;-56
2023/07/11 12:06:03;;;;;;;;;;;;;;;30.43;43.09;95526.13;5086166;28;1843;-56
2023/07/11 12:08:34;;;;;;;;;;;;;;;30.43;40.75;95526.13;5093812;28;1981;-55
2023/07/11 12:11:06;;;;;;;;;;;;;;;30.60;42.86;95509.25;5094124;28;964;-55
2023/07/11 12:13:33;;;;;;;;;;;;;;;30.63;41.44;95517.00;5093849;28;1120;-55
2023/07/11 12:16:06;;;;;;;;;;;;;;;30.65;42.92;95512.03;5094187;28;965;-56
2023/07/11 12:18:41;;;;;;;;;;;;;;;30.66;42.56;95505.41;5094026;28;1013;-55
2023/07/11 12:21:13;;;;;;;;;;;;;;;30.62;42.33;95510.66;5093861;28;1109;-56
2023/07/11 12:23:43;;;;;;;;;;;;;;;30.65;43.65;95503.75;5093795;28;1012;-54
2023/07/11 12:26:10;;;;;;;;;;;;;;;30.53;43.43;95502.13;5093536;28;1577;-55
2023/07/11 12:28:37;;;;;;;;;;;;;;;30.59;40.60;95507.63;5093543;28;1902;-55
2023/07/11 12:31:05;;;;;;;;;;;;;;;30.59;43.01;95496.59;5093693;28;1037;-55
2023/07/11 12:33:32;;;;;;;;;;;;;;;30.53;42.69;95493.84;5093604;28;1029;-55
2023/07/11 12:36:07;;;;;;;;;;;;;;;30.57;41.65;95498.81;5093571;28;1076;-55
2023/07/11 12:38:44;;;;;;;;;;;;;;;30.61;40.20;95502.66;5092872;28;1059;-54
2023/07/11 12:41:17;;;;;;;;;;;;;;;30.65;41.58;95499.03;5093516;28;1026;-55
2023/07/11 12:43:47;;;;;;;;;;;;;;;30.72;41.41;95502.34;5093783;28;965;-55
2023/07/11 12:46:16;;;;;;;;;;;;;;;30.68;42.35;95495.72;5093595;28;972;-54
2023/07/11 12:48:45;;;;;;;;;;;;;;;30.66;41.08;95495.19;5093569;28;1906;-54
2023/07/11 12:51:40;;;;;;;;;;;;;;;30.79;40.48;95495.69;5093444;28;1059;-54
2023/07/11 12:54:09;;;;;;;;;;;;;;;30.92;43.44;95490.44;5080489;28;1294;-54
2023/07/11 12:56:40;;;;;;;;;;;;;;;30.93;42.34;95488.50;5093373;28;1561;-55
2023/07/11 12:59:17;;;;;;;;;;;;;;;30.92;42.78;95486.84;5093537;28;1051;-55
2023/07/11 13:01:43;;;;;;;;;;;;;;;30.68;43.73;95478.34;5093361;28;1065;-55
2023/07/11 13:04:13;;;;;;;;;;;;;;;30.77;45.26;95484.94;5093551;28;1048;-55
2023/07/11 13:06:44;;;;;;;;;;;;;;;30.84;43.21;95479.94;5093758;28;972;-55